Accueil
METAR-TAF:

METAR-TAF

Aéroports :

Séoul-Incheon, Corée du Sud

Aéroport international d'Incheon

latitude: 37-28N, longitude: 126-27E, altitude: 7 m

Observation

Le bulletin a été fait il y a 39 minutes, à 19:30 UTC
Vent 9 kt de nord/nord-ouest
Température -1°C
Humidité 93%
Pression 1026 hPa
Visibilité: 2200 m
brume

METAR: RKSI 231930Z 34009KT 2200 R33R/P2000N R33L/1400N R34/P2000N BR NSC M01/M02 Q1026 NOSIG

Heure: 05:09 (20:09 UTC)

Prévision

Le bulletin a été fait il y a 1 heure et 49 minutes, à 18:20 UTC
Prévision valable du 23 à 18 UTC au 24 à 24 UTC
Vent 7 kt de nord/nord-ouest
Visibilité: 2800 m
Nuages épars à une hauteur de 2000 ft
brume
Temporairement
du 23 à 18 UTC au 23 à 20 UTC
Visibilité: 1400 m
Evoluant progressivement
du 23 à 21 UTC au 23 à 22 UTC
Visibilité: 6000 m

TAF: RKSI 231820Z 2318/2424 33007KT 2800 BR SCT020 TNM02/2321Z TX06/2406Z TNM02/2421Z TEMPO 2318/2320 1400 BECMG 2321/2322 6000 NSW

Observations et prévisions météorologiques de plus de 4000 aéroports (messages METAR et TAF).

Les stations disponibles sont représentées par des disques jaunes et rouges sur la carte.

Passer la souris dessus pour voir le nom de la station.

Cliquer dessus pour voir les observations et prévisions météorologiques.

Pour changer de carte: cliquez sur les boutons verts avec une croix noire pour zoomer, sur le bouton vert avec un tiret pour effectuer un zoom arrière, ou sur les flèches vertes pour les cartes adjacentes.


METAR-TAF: